Terminal Aerodrome Forecast
Issued by NWS

Home | Current Version | Previous Version | Text Only | Print | Product List | Glossary On
Versions: 1 2 3 4 5 6 7 8 9 10 11 12 13 14 15 16 17 18 19 20 21
000
FTUS46 KSEW 270900 AAA
TAFBFI
TAF AMD
KBFI 270902Z 2709/2806 18013G20KT P6SM -RA SCT030 OVC050
     FM271100 18013G20KT P6SM -RA SCT020 OVC030
     FM272000 20015G25KT P6SM -RA SCT025 OVC035=

USA.gov is the U.S. government's official web portal to all federal, state and local government web resources and services.